sensor_id;sensor_type;location;lat;lon;timestamp;temperature;humidity
48686;DHT22;34485;51.536;3.816;2022-08-19T00:00:05;18.30;99.90
48686;DHT22;34485;51.536;3.816;2022-08-19T00:02:32;18.20;99.90
48686;DHT22;34485;51.536;3.816;2022-08-19T00:04:57;18.20;99.90
48686;DHT22;34485;51.536;3.816;2022-08-19T00:07:23;18.20;99.90
48686;DHT22;34485;51.536;3.816;2022-08-19T00:09:49;18.20;99.90
48686;DHT22;34485;51.536;3.816;2022-08-19T00:12:14;18.20;99.90
48686;DHT22;34485;51.536;3.816;2022-08-19T00:14:40;18.20;99.90
48686;DHT22;34485;51.536;3.816;2022-08-19T00:17:08;18.20;99.90
48686;DHT22;34485;51.536;3.816;2022-08-19T00:19:35;18.20;99.90
48686;DHT22;34485;51.536;3.816;2022-08-19T00:22:01;18.20;99.90
48686;DHT22;34485;51.536;3.816;2022-08-19T00:24:28;18.10;99.90
48686;DHT22;34485;51.536;3.816;2022-08-19T00:26:54;18.10;99.90
48686;DHT22;34485;51.536;3.816;2022-08-19T00:29:23;18.10;99.90
48686;DHT22;34485;51.536;3.816;2022-08-19T00:31:49;18.00;99.90
48686;DHT22;34485;51.536;3.816;2022-08-19T00:34:18;18.00;99.90
48686;DHT22;34485;51.536;3.816;2022-08-19T00:36:44;18.00;99.90
48686;DHT22;34485;51.536;3.816;2022-08-19T00:39:10;17.90;99.90
48686;DHT22;34485;51.536;3.816;2022-08-19T00:41:38;17.90;99.90
48686;DHT22;34485;51.536;3.816;2022-08-19T00:46:31;17.80;99.90
48686;DHT22;34485;51.536;3.816;2022-08-19T00:49:00;17.80;99.90
48686;DHT22;34485;51.536;3.816;2022-08-19T00:51:29;17.80;99.90
48686;DHT22;34485;51.536;3.816;2022-08-19T00:53:56;17.80;99.90
48686;DHT22;34485;51.536;3.816;2022-08-19T00:56:23;17.70;99.90
48686;DHT22;34485;51.536;3.816;2022-08-19T00:58:49;17.70;99.90
48686;DHT22;34485;51.536;3.816;2022-08-19T01:01:15;17.70;99.90
48686;DHT22;34485;51.536;3.816;2022-08-19T01:03:41;17.70;99.90
48686;DHT22;34485;51.536;3.816;2022-08-19T01:06:07;17.70;99.90
48686;DHT22;34485;51.536;3.816;2022-08-19T01:08:33;17.70;99.90
48686;DHT22;34485;51.536;3.816;2022-08-19T01:10:59;17.70;99.90
48686;DHT22;34485;51.536;3.816;2022-08-19T01:13:29;17.60;99.90
48686;DHT22;34485;51.536;3.816;2022-08-19T01:15:59;17.60;99.90
48686;DHT22;34485;51.536;3.816;2022-08-19T01:18:26;17.60;99.90
48686;DHT22;34485;51.536;3.816;2022-08-19T01:20:55;17.50;99.90
48686;DHT22;34485;51.536;3.816;2022-08-19T01:23:21;17.50;99.90
48686;DHT22;34485;51.536;3.816;2022-08-19T01:26:09;17.50;99.90
48686;DHT22;34485;51.536;3.816;2022-08-19T01:28:36;17.50;99.90
48686;DHT22;34485;51.536;3.816;2022-08-19T01:31:02;17.50;99.90
48686;DHT22;34485;51.536;3.816;2022-08-19T01:33:28;17.40;99.90
48686;DHT22;34485;51.536;3.816;2022-08-19T01:36:07;17.40;99.90
48686;DHT22;34485;51.536;3.816;2022-08-19T01:38:37;17.40;99.90
48686;DHT22;34485;51.536;3.816;2022-08-19T01:41:03;17.40;99.90
48686;DHT22;34485;51.536;3.816;2022-08-19T01:43:29;17.40;99.90
48686;DHT22;34485;51.536;3.816;2022-08-19T01:45:54;17.40;99.90
48686;DHT22;34485;51.536;3.816;2022-08-19T01:48:20;17.40;99.90
48686;DHT22;34485;51.536;3.816;2022-08-19T01:50:46;17.40;99.90
48686;DHT22;34485;51.536;3.816;2022-08-19T01:53:13;17.40;99.90
48686;DHT22;34485;51.536;3.816;2022-08-19T01:55:41;17.40;99.90
48686;DHT22;34485;51.536;3.816;2022-08-19T01:58:12;17.40;99.90
48686;DHT22;34485;51.536;3.816;2022-08-19T02:00:38;17.40;99.90
48686;DHT22;34485;51.536;3.816;2022-08-19T02:03:03;17.30;99.90
48686;DHT22;34485;51.536;3.816;2022-08-19T02:05:29;17.30;99.90
48686;DHT22;34485;51.536;3.816;2022-08-19T02:07:57;17.30;99.90
48686;DHT22;34485;51.536;3.816;2022-08-19T02:10:24;17.20;99.90
48686;DHT22;34485;51.536;3.816;2022-08-19T02:12:50;17.20;99.90
48686;DHT22;34485;51.536;3.816;2022-08-19T02:15:17;17.10;99.90
48686;DHT22;34485;51.536;3.816;2022-08-19T02:17:44;17.10;99.90
48686;DHT22;34485;51.536;3.816;2022-08-19T02:20:10;17.10;99.90
48686;DHT22;34485;51.536;3.816;2022-08-19T02:22:36;17.10;99.90
48686;DHT22;34485;51.536;3.816;2022-08-19T02:25:02;17.10;99.90
48686;DHT22;34485;51.536;3.816;2022-08-19T02:27:30;17.10;99.90
48686;DHT22;34485;51.536;3.816;2022-08-19T02:29:56;17.00;99.90
48686;DHT22;34485;51.536;3.816;2022-08-19T02:32:21;17.10;99.90
48686;DHT22;34485;51.536;3.816;2022-08-19T02:34:47;17.00;99.90
48686;DHT22;34485;51.536;3.816;2022-08-19T02:37:13;17.00;99.90
48686;DHT22;34485;51.536;3.816;2022-08-19T02:39:58;17.00;99.90
48686;DHT22;34485;51.536;3.816;2022-08-19T02:42:24;16.90;99.90
48686;DHT22;34485;51.536;3.816;2022-08-19T02:44:50;16.90;99.90
48686;DHT22;34485;51.536;3.816;2022-08-19T02:47:17;16.90;99.90
48686;DHT22;34485;51.536;3.816;2022-08-19T02:49:45;16.90;99.90
48686;DHT22;34485;51.536;3.816;2022-08-19T02:52:10;17.00;99.90
48686;DHT22;34485;51.536;3.816;2022-08-19T02:54:37;17.00;99.90
48686;DHT22;34485;51.536;3.816;2022-08-19T02:57:03;17.10;99.90
48686;DHT22;34485;51.536;3.816;2022-08-19T02:59:30;17.10;99.90
48686;DHT22;34485;51.536;3.816;2022-08-19T03:01:56;17.20;99.90
48686;DHT22;34485;51.536;3.816;2022-08-19T03:04:22;17.20;99.90
48686;DHT22;34485;51.536;3.816;2022-08-19T03:06:48;17.30;99.90
48686;DHT22;34485;51.536;3.816;2022-08-19T03:09:15;17.30;99.90
48686;DHT22;34485;51.536;3.816;2022-08-19T03:11:41;17.30;99.90
48686;DHT22;34485;51.536;3.816;2022-08-19T03:14:07;17.30;99.90
48686;DHT22;34485;51.536;3.816;2022-08-19T03:16:47;17.40;99.90
48686;DHT22;34485;51.536;3.816;2022-08-19T03:19:13;17.40;99.90
48686;DHT22;34485;51.536;3.816;2022-08-19T03:21:43;17.40;99.90
48686;DHT22;34485;51.536;3.816;2022-08-19T03:24:10;17.40;99.90
48686;DHT22;34485;51.536;3.816;2022-08-19T03:26:41;17.40;99.90
48686;DHT22;34485;51.536;3.816;2022-08-19T03:29:07;17.40;99.90
48686;DHT22;34485;51.536;3.816;2022-08-19T03:31:36;17.40;99.90
48686;DHT22;34485;51.536;3.816;2022-08-19T03:34:02;17.40;99.90
48686;DHT22;34485;51.536;3.816;2022-08-19T03:36:28;17.40;99.90
48686;DHT22;34485;51.536;3.816;2022-08-19T03:38:57;17.40;99.90
48686;DHT22;34485;51.536;3.816;2022-08-19T03:41:47;17.40;99.90
48686;DHT22;34485;51.536;3.816;2022-08-19T03:44:17;17.30;99.90
48686;DHT22;34485;51.536;3.816;2022-08-19T03:46:43;17.30;99.90
48686;DHT22;34485;51.536;3.816;2022-08-19T03:49:09;17.30;99.90
48686;DHT22;34485;51.536;3.816;2022-08-19T03:51:37;17.30;99.90
48686;DHT22;34485;51.536;3.816;2022-08-19T03:54:07;17.30;99.90
48686;DHT22;34485;51.536;3.816;2022-08-19T03:56:37;17.20;99.90
48686;DHT22;34485;51.536;3.816;2022-08-19T03:59:04;17.20;99.90
48686;DHT22;34485;51.536;3.816;2022-08-19T04:01:30;17.20;99.90
48686;DHT22;34485;51.536;3.816;2022-08-19T04:03:57;17.10;99.90
48686;DHT22;34485;51.536;3.816;2022-08-19T04:06:26;17.10;99.90
48686;DHT22;34485;51.536;3.816;2022-08-19T04:08:54;17.10;99.90
48686;DHT22;34485;51.536;3.816;2022-08-19T04:11:25;17.10;99.90
48686;DHT22;34485;51.536;3.816;2022-08-19T04:13:52;17.10;99.90
48686;DHT22;34485;51.536;3.816;2022-08-19T04:16:19;17.00;99.90
48686;DHT22;34485;51.536;3.816;2022-08-19T04:18:47;17.00;99.90
48686;DHT22;34485;51.536;3.816;2022-08-19T04:21:22;17.00;99.90
48686;DHT22;34485;51.536;3.816;2022-08-19T04:23:48;17.00;99.90
48686;DHT22;34485;51.536;3.816;2022-08-19T04:26:15;17.00;99.90
48686;DHT22;34485;51.536;3.816;2022-08-19T04:28:42;16.90;99.90
48686;DHT22;34485;51.536;3.816;2022-08-19T04:31:14;16.90;99.90
48686;DHT22;34485;51.536;3.816;2022-08-19T04:33:40;16.90;99.90
48686;DHT22;34485;51.536;3.816;2022-08-19T04:36:06;16.90;99.90
48686;DHT22;34485;51.536;3.816;2022-08-19T04:38:32;16.90;99.90
48686;DHT22;34485;51.536;3.816;2022-08-19T04:40:58;16.90;99.90
48686;DHT22;34485;51.536;3.816;2022-08-19T04:43:44;16.90;99.90
48686;DHT22;34485;51.536;3.816;2022-08-19T04:46:14;16.90;99.90
48686;DHT22;34485;51.536;3.816;2022-08-19T04:48:40;16.90;99.90
48686;DHT22;34485;51.536;3.816;2022-08-19T04:51:09;16.90;99.90
48686;DHT22;34485;51.536;3.816;2022-08-19T04:53:36;16.90;99.90
48686;DHT22;34485;51.536;3.816;2022-08-19T04:56:12;16.90;99.90
48686;DHT22;34485;51.536;3.816;2022-08-19T04:58:41;17.00;99.90
48686;DHT22;34485;51.536;3.816;2022-08-19T05:01:12;17.00;99.90
48686;DHT22;34485;51.536;3.816;2022-08-19T05:03:38;17.00;99.90
48686;DHT22;34485;51.536;3.816;2022-08-19T05:06:10;17.00;99.90
48686;DHT22;34485;51.536;3.816;2022-08-19T05:08:38;17.00;99.90
48686;DHT22;34485;51.536;3.816;2022-08-19T05:11:22;17.10;99.90
48686;DHT22;34485;51.536;3.816;2022-08-19T05:13:48;17.10;99.90
48686;DHT22;34485;51.536;3.816;2022-08-19T05:16:16;17.20;99.90
48686;DHT22;34485;51.536;3.816;2022-08-19T05:18:43;17.20;99.90
48686;DHT22;34485;51.536;3.816;2022-08-19T05:21:27;17.30;99.90
48686;DHT22;34485;51.536;3.816;2022-08-19T05:24:12;17.40;99.90
48686;DHT22;34485;51.536;3.816;2022-08-19T05:26:41;17.50;99.90
48686;DHT22;34485;51.536;3.816;2022-08-19T05:29:07;17.50;99.90
48686;DHT22;34485;51.536;3.816;2022-08-19T05:31:34;17.60;99.90
48686;DHT22;34485;51.536;3.816;2022-08-19T05:34:01;17.60;99.90
48686;DHT22;34485;51.536;3.816;2022-08-19T05:36:32;17.70;99.90
48686;DHT22;34485;51.536;3.816;2022-08-19T05:38:58;17.70;99.90
48686;DHT22;34485;51.536;3.816;2022-08-19T05:41:23;17.80;99.90
48686;DHT22;34485;51.536;3.816;2022-08-19T05:43:57;17.90;99.90
48686;DHT22;34485;51.536;3.816;2022-08-19T05:46:23;18.00;99.90
48686;DHT22;34485;51.536;3.816;2022-08-19T05:48:49;18.00;99.90
48686;DHT22;34485;51.536;3.816;2022-08-19T05:51:15;18.10;99.90
48686;DHT22;34485;51.536;3.816;2022-08-19T05:53:42;18.20;99.90
48686;DHT22;34485;51.536;3.816;2022-08-19T05:56:10;18.20;99.90
48686;DHT22;34485;51.536;3.816;2022-08-19T05:58:37;18.30;99.90
48686;DHT22;34485;51.536;3.816;2022-08-19T06:01:04;18.30;99.90
48686;DHT22;34485;51.536;3.816;2022-08-19T06:03:32;18.40;99.90
48686;DHT22;34485;51.536;3.816;2022-08-19T06:05:59;18.50;99.90
48686;DHT22;34485;51.536;3.816;2022-08-19T06:08:25;18.60;99.90
48686;DHT22;34485;51.536;3.816;2022-08-19T06:10:52;18.90;99.90
48686;DHT22;34485;51.536;3.816;2022-08-19T06:13:17;18.90;99.90
48686;DHT22;34485;51.536;3.816;2022-08-19T06:15:45;19.00;99.90
48686;DHT22;34485;51.536;3.816;2022-08-19T06:18:13;19.20;99.90
48686;DHT22;34485;51.536;3.816;2022-08-19T06:20:39;19.40;99.90
48686;DHT22;34485;51.536;3.816;2022-08-19T06:23:05;19.50;99.90
48686;DHT22;34485;51.536;3.816;2022-08-19T06:25:30;19.60;99.90
48686;DHT22;34485;51.536;3.816;2022-08-19T06:27:56;19.70;99.90
48686;DHT22;34485;51.536;3.816;2022-08-19T06:30:22;19.90;99.90
48686;DHT22;34485;51.536;3.816;2022-08-19T06:32:47;20.00;99.90
48686;DHT22;34485;51.536;3.816;2022-08-19T06:35:13;20.10;99.90
48686;DHT22;34485;51.536;3.816;2022-08-19T06:37:40;20.20;99.90
48686;DHT22;34485;51.536;3.816;2022-08-19T06:40:06;20.40;99.90
48686;DHT22;34485;51.536;3.816;2022-08-19T06:42:34;20.50;99.90
48686;DHT22;34485;51.536;3.816;2022-08-19T06:45:00;20.70;99.90
48686;DHT22;34485;51.536;3.816;2022-08-19T06:47:29;20.90;99.90
48686;DHT22;34485;51.536;3.816;2022-08-19T06:49:56;21.00;99.90
48686;DHT22;34485;51.536;3.816;2022-08-19T06:52:25;21.20;99.90
48686;DHT22;34485;51.536;3.816;2022-08-19T06:54:51;21.30;99.90
48686;DHT22;34485;51.536;3.816;2022-08-19T06:57:16;21.40;99.90
48686;DHT22;34485;51.536;3.816;2022-08-19T06:59:42;21.50;99.90
48686;DHT22;34485;51.536;3.816;2022-08-19T07:02:07;21.50;99.90
48686;DHT22;34485;51.536;3.816;2022-08-19T07:04:35;21.60;99.90
48686;DHT22;34485;51.536;3.816;2022-08-19T07:07:05;21.60;99.90
48686;DHT22;34485;51.536;3.816;2022-08-19T07:09:34;21.60;99.90
48686;DHT22;34485;51.536;3.816;2022-08-19T07:12:03;21.60;99.90
48686;DHT22;34485;51.536;3.816;2022-08-19T07:14:28;21.70;99.90
48686;DHT22;34485;51.536;3.816;2022-08-19T07:16:56;21.80;99.90
48686;DHT22;34485;51.536;3.816;2022-08-19T07:19:23;22.00;99.90
48686;DHT22;34485;51.536;3.816;2022-08-19T07:21:51;22.30;99.90
48686;DHT22;34485;51.536;3.816;2022-08-19T07:24:19;22.40;99.90
48686;DHT22;34485;51.536;3.816;2022-08-19T07:26:46;22.50;99.90
48686;DHT22;34485;51.536;3.816;2022-08-19T07:29:12;22.50;99.90
48686;DHT22;34485;51.536;3.816;2022-08-19T07:31:38;22.50;99.90
48686;DHT22;34485;51.536;3.816;2022-08-19T07:34:06;22.40;99.90
48686;DHT22;34485;51.536;3.816;2022-08-19T07:36:38;22.60;99.90
48686;DHT22;34485;51.536;3.816;2022-08-19T07:39:11;22.70;99.90
48686;DHT22;34485;51.536;3.816;2022-08-19T07:41:37;22.60;99.90
48686;DHT22;34485;51.536;3.816;2022-08-19T07:44:05;22.80;99.90
48686;DHT22;34485;51.536;3.816;2022-08-19T07:46:34;23.00;99.90
48686;DHT22;34485;51.536;3.816;2022-08-19T07:49:01;23.20;99.60
48686;DHT22;34485;51.536;3.816;2022-08-19T07:51:27;23.20;99.30
48686;DHT22;34485;51.536;3.816;2022-08-19T07:53:54;23.30;99.10
48686;DHT22;34485;51.536;3.816;2022-08-19T07:56:20;23.30;98.70
48686;DHT22;34485;51.536;3.816;2022-08-19T07:58:49;23.30;98.00
48686;DHT22;34485;51.536;3.816;2022-08-19T08:01:19;23.30;98.10
48686;DHT22;34485;51.536;3.816;2022-08-19T08:03:47;23.20;97.90
48686;DHT22;34485;51.536;3.816;2022-08-19T08:06:32;23.20;98.20
48686;DHT22;34485;51.536;3.816;2022-08-19T08:09:19;23.20;98.70
48686;DHT22;34485;51.536;3.816;2022-08-19T08:11:49;23.20;98.50
48686;DHT22;34485;51.536;3.816;2022-08-19T08:14:25;23.20;98.40
48686;DHT22;34485;51.536;3.816;2022-08-19T08:16:51;23.10;98.20
48686;DHT22;34485;51.536;3.816;2022-08-19T08:19:20;23.00;99.00
48686;DHT22;34485;51.536;3.816;2022-08-19T08:21:46;22.90;99.50
48686;DHT22;34485;51.536;3.816;2022-08-19T08:24:12;23.00;99.70
48686;DHT22;34485;51.536;3.816;2022-08-19T08:26:38;22.90;99.80
48686;DHT22;34485;51.536;3.816;2022-08-19T08:29:04;23.00;99.80
48686;DHT22;34485;51.536;3.816;2022-08-19T08:31:30;22.90;99.50
48686;DHT22;34485;51.536;3.816;2022-08-19T08:33:56;22.70;99.90
48686;DHT22;34485;51.536;3.816;2022-08-19T08:36:21;22.50;99.90
48686;DHT22;34485;51.536;3.816;2022-08-19T08:38:47;22.50;99.90
48686;DHT22;34485;51.536;3.816;2022-08-19T08:41:31;22.30;99.90
48686;DHT22;34485;51.536;3.816;2022-08-19T08:43:59;22.20;99.90
48686;DHT22;34485;51.536;3.816;2022-08-19T08:51:38;21.80;99.90
48686;DHT22;34485;51.536;3.816;2022-08-19T08:54:08;21.70;99.90
48686;DHT22;34485;51.536;3.816;2022-08-19T08:56:41;21.70;99.90
48686;DHT22;34485;51.536;3.816;2022-08-19T09:01:38;21.90;99.90
48686;DHT22;34485;51.536;3.816;2022-08-19T09:04:06;21.90;99.90
48686;DHT22;34485;51.536;3.816;2022-08-19T09:06:46;21.90;99.90
48686;DHT22;34485;51.536;3.816;2022-08-19T09:09:24;21.90;99.90
48686;DHT22;34485;51.536;3.816;2022-08-19T09:14:51;21.90;99.90
48686;DHT22;34485;51.536;3.816;2022-08-19T09:17:20;21.70;99.90
48686;DHT22;34485;51.536;3.816;2022-08-19T09:19:59;21.60;99.90
48686;DHT22;34485;51.536;3.816;2022-08-19T09:22:29;21.50;99.90
48686;DHT22;34485;51.536;3.816;2022-08-19T09:24:56;21.40;99.90
48686;DHT22;34485;51.536;3.816;2022-08-19T09:27:22;21.40;99.90
48686;DHT22;34485;51.536;3.816;2022-08-19T09:29:50;21.30;99.90
48686;DHT22;34485;51.536;3.816;2022-08-19T09:32:15;21.20;99.90
48686;DHT22;34485;51.536;3.816;2022-08-19T09:34:42;21.10;99.90
48686;DHT22;34485;51.536;3.816;2022-08-19T09:37:08;21.10;99.90
48686;DHT22;34485;51.536;3.816;2022-08-19T09:39:34;21.10;99.90
48686;DHT22;34485;51.536;3.816;2022-08-19T09:42:00;21.20;99.90
48686;DHT22;34485;51.536;3.816;2022-08-19T09:44:26;21.30;99.90
48686;DHT22;34485;51.536;3.816;2022-08-19T09:46:51;21.40;99.90
48686;DHT22;34485;51.536;3.816;2022-08-19T09:49:19;21.40;99.90
48686;DHT22;34485;51.536;3.816;2022-08-19T09:51:49;21.50;99.90
48686;DHT22;34485;51.536;3.816;2022-08-19T09:54:15;21.50;99.90
48686;DHT22;34485;51.536;3.816;2022-08-19T09:56:41;21.50;99.90
48686;DHT22;34485;51.536;3.816;2022-08-19T09:59:06;21.60;99.90
48686;DHT22;34485;51.536;3.816;2022-08-19T10:01:32;21.60;99.90
48686;DHT22;34485;51.536;3.816;2022-08-19T10:03:59;21.60;99.90
48686;DHT22;34485;51.536;3.816;2022-08-19T10:06:28;21.60;99.90
48686;DHT22;34485;51.536;3.816;2022-08-19T10:08:56;21.70;99.90
48686;DHT22;34485;51.536;3.816;2022-08-19T10:11:22;21.70;99.90
48686;DHT22;34485;51.536;3.816;2022-08-19T10:13:48;21.80;99.90
48686;DHT22;34485;51.536;3.816;2022-08-19T10:16:17;21.90;99.90
48686;DHT22;34485;51.536;3.816;2022-08-19T10:18:44;22.00;99.90
48686;DHT22;34485;51.536;3.816;2022-08-19T10:21:19;22.10;99.90
48686;DHT22;34485;51.536;3.816;2022-08-19T10:23:49;22.30;99.90
48686;DHT22;34485;51.536;3.816;2022-08-19T10:26:20;22.40;99.90
48686;DHT22;34485;51.536;3.816;2022-08-19T10:28:46;22.40;99.90
48686;DHT22;34485;51.536;3.816;2022-08-19T10:31:15;22.40;99.90
48686;DHT22;34485;51.536;3.816;2022-08-19T10:33:43;22.40;99.90
48686;DHT22;34485;51.536;3.816;2022-08-19T10:36:12;22.40;99.90
48686;DHT22;34485;51.536;3.816;2022-08-19T10:38:41;22.40;99.90
48686;DHT22;34485;51.536;3.816;2022-08-19T10:43:34;22.80;99.90
48686;DHT22;34485;51.536;3.816;2022-08-19T10:46:04;22.90;99.90
48686;DHT22;34485;51.536;3.816;2022-08-19T10:48:31;23.20;99.90
48686;DHT22;34485;51.536;3.816;2022-08-19T10:50:57;23.30;99.90
48686;DHT22;34485;51.536;3.816;2022-08-19T10:53:41;23.60;99.90
48686;DHT22;34485;51.536;3.816;2022-08-19T10:56:07;24.00;99.90
48686;DHT22;34485;51.536;3.816;2022-08-19T10:58:51;24.60;99.90
48686;DHT22;34485;51.536;3.816;2022-08-19T11:01:16;25.20;99.90
48686;DHT22;34485;51.536;3.816;2022-08-19T11:03:42;25.50;97.70
48686;DHT22;34485;51.536;3.816;2022-08-19T11:06:11;25.60;95.60
48686;DHT22;34485;51.536;3.816;2022-08-19T11:08:37;25.60;95.10
48686;DHT22;34485;51.536;3.816;2022-08-19T11:11:04;25.50;93.40
48686;DHT22;34485;51.536;3.816;2022-08-19T11:13:33;25.40;93.90
48686;DHT22;34485;51.536;3.816;2022-08-19T11:16:06;25.10;94.90
48686;DHT22;34485;51.536;3.816;2022-08-19T11:18:34;24.90;97.00
48686;DHT22;34485;51.536;3.816;2022-08-19T11:21:17;24.80;96.50
48686;DHT22;34485;51.536;3.816;2022-08-19T11:23:45;24.90;97.90
48686;DHT22;34485;51.536;3.816;2022-08-19T11:26:11;25.10;96.90
48686;DHT22;34485;51.536;3.816;2022-08-19T11:28:37;25.30;95.70
48686;DHT22;34485;51.536;3.816;2022-08-19T11:31:03;25.40;94.70
48686;DHT22;34485;51.536;3.816;2022-08-19T11:33:30;25.60;93.40
48686;DHT22;34485;51.536;3.816;2022-08-19T11:35:58;25.70;92.30
48686;DHT22;34485;51.536;3.816;2022-08-19T11:38:25;25.70;91.90
48686;DHT22;34485;51.536;3.816;2022-08-19T11:40:59;25.70;91.80
48686;DHT22;34485;51.536;3.816;2022-08-19T11:43:25;25.60;91.00
48686;DHT22;34485;51.536;3.816;2022-08-19T11:48:18;25.20;89.70
48686;DHT22;34485;51.536;3.816;2022-08-19T11:50:48;25.00;90.10
48686;DHT22;34485;51.536;3.816;2022-08-19T11:53:13;25.00;91.10
48686;DHT22;34485;51.536;3.816;2022-08-19T11:55:39;25.10;90.50
48686;DHT22;34485;51.536;3.816;2022-08-19T11:58:05;25.20;90.00
48686;DHT22;34485;51.536;3.816;2022-08-19T12:00:33;25.20;90.30
48686;DHT22;34485;51.536;3.816;2022-08-19T12:03:00;25.20;90.70
48686;DHT22;34485;51.536;3.816;2022-08-19T12:05:27;25.10;90.50
48686;DHT22;34485;51.536;3.816;2022-08-19T12:07:52;25.00;88.80
48686;DHT22;34485;51.536;3.816;2022-08-19T12:10:20;25.00;90.40
48686;DHT22;34485;51.536;3.816;2022-08-19T12:12:45;25.10;91.00
48686;DHT22;34485;51.536;3.816;2022-08-19T12:15:12;25.20;91.40
48686;DHT22;34485;51.536;3.816;2022-08-19T12:17:39;25.50;89.80
48686;DHT22;34485;51.536;3.816;2022-08-19T12:20:08;25.50;88.60
48686;DHT22;34485;51.536;3.816;2022-08-19T12:22:35;25.60;85.40
48686;DHT22;34485;51.536;3.816;2022-08-19T12:25:01;25.40;86.20
48686;DHT22;34485;51.536;3.816;2022-08-19T12:27:27;25.40;88.00
48686;DHT22;34485;51.536;3.816;2022-08-19T12:29:53;25.60;88.20
48686;DHT22;34485;51.536;3.816;2022-08-19T12:32:18;25.80;85.30
48686;DHT22;34485;51.536;3.816;2022-08-19T12:34:44;26.00;82.60
48686;DHT22;34485;51.536;3.816;2022-08-19T12:37:12;26.30;80.80
48686;DHT22;34485;51.536;3.816;2022-08-19T12:39:40;26.40;81.40
48686;DHT22;34485;51.536;3.816;2022-08-19T12:42:07;26.50;79.80
48686;DHT22;34485;51.536;3.816;2022-08-19T12:44:35;26.70;79.30
48686;DHT22;34485;51.536;3.816;2022-08-19T12:47:00;26.80;81.60
48686;DHT22;34485;51.536;3.816;2022-08-19T12:49:29;26.90;82.00
48686;DHT22;34485;51.536;3.816;2022-08-19T12:54:21;27.00;99.90
48686;DHT22;34485;51.536;3.816;2022-08-19T12:56:46;26.70;78.40
48686;DHT22;34485;51.536;3.816;2022-08-19T12:59:13;26.60;79.60
48686;DHT22;34485;51.536;3.816;2022-08-19T13:01:39;26.50;78.00
48686;DHT22;34485;51.536;3.816;2022-08-19T13:04:06;26.40;78.30
48686;DHT22;34485;51.536;3.816;2022-08-19T13:06:31;26.30;79.00
48686;DHT22;34485;51.536;3.816;2022-08-19T13:08:57;26.30;78.20
48686;DHT22;34485;51.536;3.816;2022-08-19T13:11:23;26.30;79.50
48686;DHT22;34485;51.536;3.816;2022-08-19T13:13:51;26.20;78.60
48686;DHT22;34485;51.536;3.816;2022-08-19T13:16:18;26.00;79.00
48686;DHT22;34485;51.536;3.816;2022-08-19T13:18:45;25.90;80.50
48686;DHT22;34485;51.536;3.816;2022-08-19T13:21:13;25.90;80.80
48686;DHT22;34485;51.536;3.816;2022-08-19T13:23:39;25.80;81.70
48686;DHT22;34485;51.536;3.816;2022-08-19T13:26:07;25.80;82.00
48686;DHT22;34485;51.536;3.816;2022-08-19T13:28:34;25.60;82.70
48686;DHT22;34485;51.536;3.816;2022-08-19T13:31:20;25.50;85.20
48686;DHT22;34485;51.536;3.816;2022-08-19T13:34:04;25.40;85.70
48686;DHT22;34485;51.536;3.816;2022-08-19T13:38:57;25.00;87.40
48686;DHT22;34485;51.536;3.816;2022-08-19T13:41:23;24.80;88.80
48686;DHT22;34485;51.536;3.816;2022-08-19T13:43:49;24.90;89.00
48686;DHT22;34485;51.536;3.816;2022-08-19T13:46:15;24.80;88.00
48686;DHT22;34485;51.536;3.816;2022-08-19T13:48:41;24.80;88.50
48686;DHT22;34485;51.536;3.816;2022-08-19T13:51:07;24.80;88.60
48686;DHT22;34485;51.536;3.816;2022-08-19T13:53:39;24.80;90.70
48686;DHT22;34485;51.536;3.816;2022-08-19T13:56:06;24.70;90.70
48686;DHT22;34485;51.536;3.816;2022-08-19T13:58:31;24.50;91.10
48686;DHT22;34485;51.536;3.816;2022-08-19T14:00:57;24.50;91.70
48686;DHT22;34485;51.536;3.816;2022-08-19T14:03:24;24.50;93.20
48686;DHT22;34485;51.536;3.816;2022-08-19T14:05:50;24.60;92.10
48686;DHT22;34485;51.536;3.816;2022-08-19T14:08:16;24.70;90.20
48686;DHT22;34485;51.536;3.816;2022-08-19T14:10:42;24.80;89.20
48686;DHT22;34485;51.536;3.816;2022-08-19T14:13:09;24.80;89.30
48686;DHT22;34485;51.536;3.816;2022-08-19T14:15:35;25.00;87.80
48686;DHT22;34485;51.536;3.816;2022-08-19T14:18:02;25.20;86.40
48686;DHT22;34485;51.536;3.816;2022-08-19T14:20:28;25.40;85.00
48686;DHT22;34485;51.536;3.816;2022-08-19T14:22:54;25.50;84.70
48686;DHT22;34485;51.536;3.816;2022-08-19T14:25:26;25.60;81.30
48686;DHT22;34485;51.536;3.816;2022-08-19T14:27:52;25.70;81.30
48686;DHT22;34485;51.536;3.816;2022-08-19T14:30:27;25.90;79.30
48686;DHT22;34485;51.536;3.816;2022-08-19T14:32:55;26.00;79.70
48686;DHT22;34485;51.536;3.816;2022-08-19T14:35:21;26.20;79.10
48686;DHT22;34485;51.536;3.816;2022-08-19T14:37:47;26.30;78.60
48686;DHT22;34485;51.536;3.816;2022-08-19T14:40:15;26.30;79.50
48686;DHT22;34485;51.536;3.816;2022-08-19T14:42:41;26.30;77.70
48686;DHT22;34485;51.536;3.816;2022-08-19T14:45:08;26.20;75.80
48686;DHT22;34485;51.536;3.816;2022-08-19T14:47:34;26.20;76.90
48686;DHT22;34485;51.536;3.816;2022-08-19T14:50:00;26.20;75.80
48686;DHT22;34485;51.536;3.816;2022-08-19T14:52:25;26.20;77.40
48686;DHT22;34485;51.536;3.816;2022-08-19T14:54:51;26.20;75.70
48686;DHT22;34485;51.536;3.816;2022-08-19T14:57:17;26.10;75.40
48686;DHT22;34485;51.536;3.816;2022-08-19T14:59:43;26.10;74.30
48686;DHT22;34485;51.536;3.816;2022-08-19T15:02:10;26.00;75.40
48686;DHT22;34485;51.536;3.816;2022-08-19T15:04:35;26.00;75.40
48686;DHT22;34485;51.536;3.816;2022-08-19T15:07:01;26.00;76.30
48686;DHT22;34485;51.536;3.816;2022-08-19T15:09:30;26.00;76.00
48686;DHT22;34485;51.536;3.816;2022-08-19T15:11:56;25.90;75.10
48686;DHT22;34485;51.536;3.816;2022-08-19T15:14:24;25.90;74.30
48686;DHT22;34485;51.536;3.816;2022-08-19T15:16:50;26.00;75.50
48686;DHT22;34485;51.536;3.816;2022-08-19T15:19:16;26.10;74.10
48686;DHT22;34485;51.536;3.816;2022-08-19T15:21:41;26.10;73.80
48686;DHT22;34485;51.536;3.816;2022-08-19T15:24:07;26.20;73.40
48686;DHT22;34485;51.536;3.816;2022-08-19T15:26:34;26.20;72.00
48686;DHT22;34485;51.536;3.816;2022-08-19T15:29:00;26.30;72.10
48686;DHT22;34485;51.536;3.816;2022-08-19T15:31:27;26.30;71.00
48686;DHT22;34485;51.536;3.816;2022-08-19T15:33:53;26.20;70.80
48686;DHT22;34485;51.536;3.816;2022-08-19T15:36:22;26.30;74.00
48686;DHT22;34485;51.536;3.816;2022-08-19T15:38:48;26.20;72.00
48686;DHT22;34485;51.536;3.816;2022-08-19T15:41:19;26.20;71.60
48686;DHT22;34485;51.536;3.816;2022-08-19T15:43:51;26.00;72.00
48686;DHT22;34485;51.536;3.816;2022-08-19T15:46:23;25.90;71.80
48686;DHT22;34485;51.536;3.816;2022-08-19T15:48:50;25.80;70.50
48686;DHT22;34485;51.536;3.816;2022-08-19T15:51:16;25.80;72.20
48686;DHT22;34485;51.536;3.816;2022-08-19T15:53:42;25.80;73.00
48686;DHT22;34485;51.536;3.816;2022-08-19T15:56:08;25.90;73.30